Time;durP1;ratioP1;P1;durP2;ratioP2;P2;SDS_P1;SDS_P2;PMS_P1;PMS_P2;Temp;Humidity;BMP_temperature;BMP_pressure;BME280_temperature;BME280_humidity;BME280_pressure;Samples;Min_cycle;Max_cycle;Signal;HPM_P1;HPM_P2
2022/09/29 00:02:22;616719.00;2.06;1063.10;0.00;0.00;0.62;;;;;16.00;1.00;;;;;;2280616;60;2016;-86
2022/09/29 00:04:49;649889.00;2.17;1120.44;0.00;0.00;0.62;;;;;16.20;1.00;;;;;;2280681;60;1086;-86
2022/09/29 00:07:17;326502.00;1.09;563.47;0.00;0.00;0.62;;;;;16.50;1.00;;;;;;2280714;61;1064;-86
2022/09/29 00:09:44;385097.00;1.28;664.19;0.00;0.00;0.62;;;;;16.60;1.00;;;;;;2280742;61;1093;-87
2022/09/29 00:12:11;491810.00;1.64;847.72;0.00;0.00;0.62;;;;;16.70;1.00;;;;;;2280663;61;1269;-87
2022/09/29 00:14:39;766913.00;2.56;1323.48;0.00;0.00;0.62;;;;;16.60;1.00;;;;;;2280705;61;1101;-86
2022/09/29 00:17:06;283421.00;0.94;489.42;0.00;0.00;0.62;;;;;16.20;1.00;;;;;;2280639;61;1219;-86
2022/09/29 00:19:33;1079176.00;3.60;1873.22;131441.00;0.44;227.81;;;;;15.20;1.00;;;;;;2280596;61;1049;-87
2022/09/29 00:22:00;453040.00;1.51;781.01;0.00;0.00;0.62;;;;;15.40;1.00;;;;;;2280649;61;2002;-86
2022/09/29 00:24:29;364749.00;1.22;629.21;0.00;0.00;0.62;;;;;15.70;1.00;;;;;;2280643;61;1359;-87
2022/09/29 00:26:56;595353.00;1.98;1026.20;36023.00;0.12;63.01;;;;;16.00;1.00;;;;;;2280481;61;1158;-88
2022/09/29 00:29:23;490699.00;1.64;845.81;0.00;0.00;0.62;;;;;16.30;1.00;;;;;;2280646;61;1035;-87
2022/09/29 00:31:50;877867.00;2.93;1517.28;21220.00;0.07;37.38;;;;;16.40;1.00;;;;;;2280598;60;1086;-87
2022/09/29 00:34:17;527949.00;1.76;909.96;0.00;0.00;0.62;;;;;16.60;1.00;;;;;;2280621;60;1380;-87
2022/09/29 00:36:44;410322.00;1.37;707.55;0.00;0.00;0.62;;;;;16.50;1.00;;;;;;2280496;60;1114;-87
2022/09/29 00:39:11;450926.00;1.50;777.38;0.00;0.00;0.62;;;;;16.50;1.00;;;;;;2280675;60;980;-86
2022/09/29 00:41:41;517179.00;1.72;891.41;0.00;0.00;0.62;;;;;16.40;1.00;;;;;;2280501;60;1994;-86
2022/09/29 00:44:42;761358.00;2.54;1313.81;0.00;0.00;0.62;;;;;16.50;1.00;;;;;;2280395;61;1585;-86
2022/09/29 00:47:15;371910.00;1.24;641.52;0.00;0.00;0.62;;;;;16.30;1.00;;;;;;2280481;61;1272;-87
2022/09/29 00:49:47;784378.00;2.61;1353.89;0.00;0.00;0.62;;;;;16.30;1.00;;;;;;2280518;61;1611;-88
2022/09/29 00:52:21;563213.00;1.88;970.74;0.00;0.00;0.62;;;;;16.40;1.00;;;;;;2280580;61;1362;-87
2022/09/29 00:54:52;567059.00;1.89;977.37;0.00;0.00;0.62;;;;;16.40;1.00;;;;;;2280621;61;1152;-86
2022/09/29 00:57:26;435314.00;1.45;750.52;0.00;0.00;0.62;;;;;16.50;1.00;;;;;;2280541;61;1623;-86
2022/09/29 01:00:01;284054.00;0.95;490.51;0.00;0.00;0.62;;;;;16.40;1.00;;;;;;2280541;61;1145;-85
2022/09/29 01:02:33;385726.00;1.29;665.27;0.00;0.00;0.62;;;;;16.30;1.00;;;;;;2280615;61;1924;-87
2022/09/29 01:05:03;573467.00;1.91;988.43;0.00;0.00;0.62;;;;;16.60;1.00;;;;;;2280428;61;1103;-88
2022/09/29 01:07:30;647603.00;2.16;1116.49;0.00;0.00;0.62;;;;;16.60;1.00;;;;;;2280418;61;1043;-85
2022/09/29 01:09:58;355238.00;1.18;612.86;0.00;0.00;0.62;;;;;16.40;1.00;;;;;;2280490;61;1093;-85
2022/09/29 01:12:26;525817.00;1.75;906.29;0.00;0.00;0.62;;;;;16.50;1.00;;;;;;2280262;61;1406;-85
2022/09/29 01:14:55;777680.00;2.59;1342.22;0.00;0.00;0.62;;;;;16.40;1.00;;;;;;2280356;61;1118;-87
2022/09/29 01:17:23;531197.00;1.77;915.55;0.00;0.00;0.62;;;;;16.30;1.00;;;;;;2280461;61;1273;-86
2022/09/29 01:20:04;573792.00;1.91;988.99;0.00;0.00;0.62;;;;;16.30;1.00;;;;;;2280238;61;1466;-87
2022/09/29 01:22:49;524710.00;1.75;904.38;0.00;0.00;0.62;;;;;16.30;1.00;;;;;;2280310;61;2010;-87
2022/09/29 01:25:43;604164.00;2.01;1041.41;0.00;0.00;0.62;;;;;16.30;1.00;;;;;;2280470;61;939;-85
2022/09/29 01:28:41;472233.00;1.57;814.03;0.00;0.00;0.62;;;;;16.20;1.00;;;;;;2280375;61;1707;-87
2022/09/29 01:31:24;707192.00;2.36;1219.71;21631.00;0.07;38.09;;;;;16.30;1.00;;;;;;2280349;61;1601;-85
2022/09/29 01:34:00;515439.00;1.72;888.41;0.00;0.00;0.62;;;;;16.20;1.00;;;;;;2280254;60;1325;-86
2022/09/29 01:36:43;494379.00;1.65;852.15;0.00;0.00;0.62;;;;;16.10;1.00;;;;;;2280445;60;1060;-86
2022/09/29 01:39:20;731671.00;2.44;1262.20;0.00;0.00;0.62;;;;;16.00;1.00;;;;;;2280413;60;1553;-87
2022/09/29 01:41:53;733239.00;2.44;1264.93;27773.00;0.09;48.73;;;;;15.80;1.00;;;;;;2280308;60;2005;-88
2022/09/29 01:44:25;505578.00;1.69;871.43;0.00;0.00;0.62;;;;;15.70;1.00;;;;;;2280330;61;1470;-88
2022/09/29 01:46:59;494562.00;1.65;852.46;0.00;0.00;0.62;;;;;15.80;1.00;;;;;;2280378;61;1102;-86
2022/09/29 01:49:31;454467.00;1.51;783.47;0.00;0.00;0.62;;;;;15.80;1.00;;;;;;2280309;61;980;-88
2022/09/29 01:52:03;365467.00;1.22;630.45;0.00;0.00;0.62;;;;;16.00;1.00;;;;;;2280444;60;1042;-88
2022/09/29 01:54:37;283248.00;0.94;489.12;0.00;0.00;0.62;;;;;16.00;1.00;;;;;;2280187;60;1485;-87
2022/09/29 01:57:12;642251.00;2.14;1107.23;0.00;0.00;0.62;;;;;16.10;1.00;;;;;;2280269;60;1114;-86
2022/09/29 01:59:45;597498.00;1.99;1029.90;0.00;0.00;0.62;;;;;16.20;1.00;;;;;;2280256;60;1132;-87
2022/09/29 02:02:19;474338.00;1.58;817.65;0.00;0.00;0.62;;;;;15.80;1.00;;;;;;2280238;60;1911;-87
2022/09/29 02:04:52;504567.00;1.68;869.69;0.00;0.00;0.62;;;;;15.70;1.00;;;;;;2280277;60;1180;-87
2022/09/29 02:07:25;567359.00;1.89;977.89;0.00;0.00;0.62;;;;;15.90;1.00;;;;;;2280240;60;964;-88
2022/09/29 02:10:01;480361.00;1.60;828.02;0.00;0.00;0.62;;;;;16.00;1.00;;;;;;2280322;60;1345;-87
2022/09/29 02:12:34;448911.00;1.50;773.91;0.00;0.00;0.62;;;;;15.90;1.00;;;;;;2280311;60;1454;-88
2022/09/29 02:15:06;598055.00;1.99;1030.86;0.00;0.00;0.62;;;;;15.90;1.00;;;;;;2280030;61;1017;-87
2022/09/29 02:17:39;435683.00;1.45;751.16;17616.00;0.06;31.14;;;;;16.00;1.00;;;;;;2280312;61;1022;-88
2022/09/29 02:20:07;556983.00;1.86;960.00;85496.00;0.28;148.53;;;;;16.30;1.00;;;;;;2280355;61;1060;-86
2022/09/29 02:22:35;368247.00;1.23;635.22;0.00;0.00;0.62;;;;;16.40;1.00;;;;;;2280236;60;1991;-86
2022/09/29 02:25:04;734603.00;2.45;1267.30;59503.00;0.20;103.62;;;;;16.40;1.00;;;;;;2280291;60;1017;-86
2022/09/29 02:27:32;702302.00;2.34;1211.23;64832.00;0.22;112.83;;;;;16.40;1.00;;;;;;2280153;60;1137;-89
2022/09/29 02:29:59;734885.00;2.45;1267.79;96258.00;0.32;167.11;;;;;16.40;1.00;;;;;;2280254;60;1407;-86
2022/09/29 02:32:28;344559.00;1.15;594.51;0.00;0.00;0.62;;;;;16.40;1.00;;;;;;2280181;60;1303;-85
2022/09/29 02:34:57;695702.00;2.32;1199.79;73868.00;0.25;128.44;;;;;16.20;1.00;;;;;;2280249;60;1067;-88
2022/09/29 02:37:45;603815.00;2.01;1040.81;64370.00;0.21;112.03;;;;;16.00;1.00;;;;;;2280169;60;1063;-88
2022/09/29 02:40:28;676873.00;2.26;1167.16;67915.00;0.23;118.16;;;;;15.70;1.00;;;;;;2280100;60;1183;-88
2022/09/29 02:43:17;856787.00;2.86;1480.35;66751.00;0.22;116.15;;;;;15.70;1.00;;;;;;2280155;60;1996;-86
2022/09/29 02:46:04;659343.00;2.20;1136.80;70509.00;0.24;122.64;;;;;15.90;1.00;;;;;;2280117;61;1084;-88
2022/09/29 02:48:55;606415.00;2.02;1045.30;72217.00;0.24;125.59;;;;;16.10;1.00;;;;;;2280149;61;1008;-87
2022/09/29 02:51:29;703500.00;2.35;1213.31;73315.00;0.24;127.49;;;;;15.80;1.00;;;;;;2280239;61;1537;-86
2022/09/29 02:54:13;802222.00;2.67;1385.00;114953.00;0.38;199.38;;;;;15.80;1.00;;;;;;2280224;61;1389;-87
2022/09/29 02:56:49;701450.00;2.34;1209.75;50361.00;0.17;87.81;;;;;15.90;1.00;;;;;;2280243;61;1131;-88
2022/09/29 02:59:23;695928.00;2.32;1200.18;106040.00;0.35;184.00;;;;;16.10;1.00;;;;;;2280220;61;1098;-88
2022/09/29 03:01:53;124754256.00;415.85;78662504.00;83006.00;0.28;144.23;;;;;16.30;1.00;;;;;;2280073;60;1996;-87
2022/09/29 03:04:22;713259.00;2.38;1230.24;90533.00;0.30;157.23;;;;;16.30;1.00;;;;;;2280055;60;1461;-85
2022/09/29 03:06:50;119862672.00;399.54;69759736.00;66589.00;0.22;115.87;;;;;16.40;1.00;;;;;;2280391;60;912;-87
2022/09/29 03:09:18;712272.00;2.37;1228.53;69003.00;0.23;120.04;;;;;16.20;1.00;;;;;;2280830;60;1059;-88
2022/09/29 03:11:45;993619.00;3.31;1721.17;79891.00;0.27;138.85;;;;;15.90;1.00;;;;;;2280828;60;1567;-87
2022/09/29 03:14:12;646513.00;2.16;1114.60;58669.00;0.20;102.18;;;;;16.00;1.00;;;;;;2280887;60;1374;-86
2022/09/29 03:16:39;1087743.00;3.63;1888.52;112553.00;0.38;195.24;;;;;16.30;1.00;;;;;;2280849;60;1114;-87
2022/09/29 03:19:06;765375.00;2.55;1320.80;62529.00;0.21;108.85;;;;;15.70;1.00;;;;;;2280788;60;1015;-88
2022/09/29 03:21:34;734164.00;2.45;1266.54;63066.00;0.21;109.78;;;;;15.50;1.00;;;;;;2280466;60;1978;-88
2022/09/29 03:24:02;826916.00;2.76;1428.11;60468.00;0.20;105.29;;;;;15.40;1.00;;;;;;2280748;61;1688;-86
2022/09/29 03:26:31;657857.00;2.19;1134.23;67758.00;0.23;117.89;;;;;15.70;1.00;;;;;;2280732;61;1005;-87
2022/09/29 03:28:59;585759.00;1.95;1009.64;57444.00;0.19;100.06;;;;;16.10;1.00;;;;;;2280806;61;1627;-88
2022/09/29 03:31:26;750567.00;2.50;1295.04;70175.00;0.23;122.06;;;;;16.20;1.00;;;;;;2280857;60;1104;-86
2022/09/29 03:33:52;424235.00;1.41;731.47;107328.00;0.36;186.22;;;;;15.90;1.00;;;;;;2280768;60;1317;-87
2022/09/29 03:36:19;751347.00;2.50;1296.40;63638.00;0.21;110.77;;;;;16.00;1.00;;;;;;2280737;60;1074;-87
2022/09/29 03:38:46;752141.00;2.51;1297.78;71589.00;0.24;124.51;;;;;16.20;1.00;;;;;;2280807;60;1138;-86
2022/09/29 03:41:15;1035431.00;3.45;1795.33;109508.00;0.37;189.98;;;;;16.00;1.00;;;;;;2280771;60;999;-87
2022/09/29 03:43:41;609887.00;2.03;1051.29;66374.00;0.22;115.49;;;;;16.20;1.00;;;;;;2280707;60;2024;-87
2022/09/29 03:46:08;621527.00;2.07;1071.40;62158.00;0.21;108.21;;;;;16.20;1.00;;;;;;2280770;60;1066;-88
2022/09/29 03:48:35;679208.00;2.26;1171.20;68075.00;0.23;118.43;;;;;16.30;1.00;;;;;;2280778;60;1110;-86
2022/09/29 03:53:37;1245724.00;4.15;2173.11;57272.00;0.19;99.76;;;;;16.40;1.00;;;;;;2028225;59;3296;-87
2022/09/29 03:56:05;638972.00;2.13;1101.56;70046.00;0.23;121.84;;;;;16.60;1.00;;;;;;2285335;61;1443;-87
2022/09/29 03:58:34;659282.00;2.20;1136.70;70195.00;0.23;122.10;;;;;16.70;1.00;;;;;;2284743;60;990;-88
2022/09/29 04:01:01;1022132.00;3.41;1771.71;63554.00;0.21;110.62;;;;;16.90;1.00;;;;;;2284909;60;1509;-87
2022/09/29 04:03:28;773526.00;2.58;1334.99;81228.00;0.27;141.16;;;;;16.80;1.00;;;;;;2284673;60;1927;-87
2022/09/29 04:05:55;782660.00;2.61;1350.90;75304.00;0.25;130.92;;;;;16.80;1.00;;;;;;2284790;60;1442;-88
2022/09/29 04:08:22;575630.00;1.92;992.16;71113.00;0.24;123.68;;;;;16.50;1.00;;;;;;2284732;60;948;-87
2022/09/29 04:10:49;698506.00;2.33;1204.65;65013.00;0.22;113.14;;;;;16.30;1.00;;;;;;2284750;60;1056;-87
2022/09/29 04:13:16;117578720.00;391.93;65844056.00;69940.00;0.23;121.66;;;;;16.10;1.00;;;;;;2284731;60;1387;-87
2022/09/29 04:15:44;752392.00;2.51;1298.22;65695.00;0.22;114.32;;;;;15.90;1.00;;;;;;2284687;60;1114;-89
2022/09/29 04:18:11;885107.00;2.95;1529.98;71102.00;0.24;123.66;;;;;16.10;1.00;;;;;;2284649;60;987;-87
2022/09/29 04:20:38;718122.00;2.39;1238.68;68043.00;0.23;118.38;;;;;16.20;1.00;;;;;;2284792;60;1086;-87
2022/09/29 04:23:06;607398.00;2.02;1047.00;69054.00;0.23;120.13;;;;;16.30;1.00;;;;;;2284604;60;1919;-88
2022/09/29 04:25:33;604686.00;2.02;1042.31;63467.00;0.21;110.47;;;;;16.40;1.00;;;;;;2284734;60;1099;-87
2022/09/29 04:28:01;744954.00;2.48;1285.29;59194.00;0.20;103.08;;;;;16.50;1.00;;;;;;2284702;60;1079;-86
2022/09/29 04:30:28;963811.00;3.21;1668.48;62378.00;0.21;108.59;;;;;16.40;1.00;;;;;;2284809;60;1044;-87
2022/09/29 04:32:56;869162.00;2.90;1502.02;60390.00;0.20;105.15;;;;;16.20;1.00;;;;;;2284605;60;1591;-87
2022/09/29 04:35:23;697919.00;2.33;1203.63;66880.00;0.22;116.37;;;;;16.00;1.00;;;;;;2284788;60;1079;-85
2022/09/29 04:37:54;928531.00;3.10;1606.29;65611.00;0.22;114.18;;;;;15.90;1.00;;;;;;2284660;60;1052;-87
2022/09/29 04:40:20;754202.00;2.51;1301.36;61643.00;0.21;107.32;;;;;15.80;1.00;;;;;;2284757;60;1094;-87
2022/09/29 04:42:47;748753.00;2.50;1291.89;55968.00;0.19;97.51;;;;;15.80;1.00;;;;;;2284627;60;2001;-87
2022/09/29 04:45:14;619631.00;2.07;1068.13;66041.00;0.22;114.92;;;;;15.70;1.00;;;;;;2284600;60;1096;-86
2022/09/29 04:47:41;663565.00;2.21;1144.11;97258.00;0.32;168.84;;;;;15.70;1.00;;;;;;2284706;60;944;-86
2022/09/29 04:50:10;850882.00;2.84;1470.01;77566.00;0.26;134.83;;;;;15.70;1.00;;;;;;2284557;60;1029;-88
2022/09/29 04:52:37;532438.00;1.77;917.69;59763.00;0.20;104.07;;;;;15.80;1.00;;;;;;2284598;60;1261;-87
2022/09/29 04:55:04;876801.00;2.92;1515.41;79452.00;0.26;138.09;;;;;15.60;1.00;;;;;;2284591;60;1079;-88
2022/09/29 04:57:31;783555.00;2.61;1352.46;70273.00;0.23;122.23;;;;;15.10;1.00;;;;;;2284591;60;1458;-88
2022/09/29 04:59:58;662927.00;2.21;1143.01;83251.00;0.28;144.65;;;;;14.60;1.00;;;;;;2284604;60;894;-87
2022/09/29 05:02:25;720398.00;2.40;1242.63;106954.00;0.36;185.57;;;;;14.60;1.00;;;;;;2284562;60;1984;-87
2022/09/29 05:04:51;658309.00;2.19;1135.01;115596.00;0.39;200.49;;;;;15.00;1.00;;;;;;2284627;60;1066;-88
2022/09/29 05:07:20;679126.00;2.26;1171.06;79829.00;0.27;138.74;;;;;15.30;1.00;;;;;;2284637;60;1108;-87
2022/09/29 05:09:47;674210.00;2.25;1162.54;69067.00;0.23;120.15;;;;;15.50;1.00;;;;;;2284566;60;947;-86
2022/09/29 05:12:14;539168.00;1.80;929.29;73402.00;0.24;127.64;;;;;15.50;1.00;;;;;;2284497;60;1277;-88
2022/09/29 05:14:41;668080.00;2.23;1151.93;79759.00;0.27;138.62;;;;;15.40;1.00;;;;;;2284558;60;1029;-88
2022/09/29 05:17:07;715223.00;2.38;1233.65;69581.00;0.23;121.04;;;;;15.20;1.00;;;;;;2284524;60;1576;-88
2022/09/29 05:19:34;581176.00;1.94;1001.73;39729.00;0.13;69.42;;;;;15.40;1.00;;;;;;2284528;60;983;-87
2022/09/29 05:22:02;497617.00;1.66;857.72;62323.00;0.21;108.49;;;;;15.60;1.00;;;;;;2284415;60;2002;-87
2022/09/29 05:24:31;1011437.00;3.37;1752.74;71564.00;0.24;124.46;;;;;15.70;1.00;;;;;;2284412;60;1341;-87
2022/09/29 05:26:57;685269.00;2.28;1181.70;113932.00;0.38;197.61;;;;;15.80;1.00;;;;;;2284614;60;930;-88
2022/09/29 05:29:24;529595.00;1.77;912.79;68042.00;0.23;118.38;;;;;15.80;1.00;;;;;;2284494;60;1106;-87
2022/09/29 05:31:51;984885.00;3.28;1705.72;67038.00;0.22;116.64;;;;;15.70;1.00;;;;;;2284288;60;1596;-87
2022/09/29 05:34:18;931228.00;3.10;1611.03;67373.00;0.22;117.22;;;;;15.40;1.00;;;;;;2284387;60;1648;-87
2022/09/29 05:36:45;864815.00;2.88;1494.41;73322.00;0.24;127.50;;;;;14.90;1.00;;;;;;2284368;60;2075;-88
2022/09/29 05:39:13;946321.00;3.15;1637.62;92532.00;0.31;160.68;;;;;14.30;1.00;;;;;;2284393;60;1034;-88
2022/09/29 05:41:41;583258.00;1.94;1005.32;64665.00;0.22;112.54;;;;;14.50;1.00;;;;;;2284536;60;1530;-88
2022/09/29 05:44:08;907831.00;3.03;1569.88;72947.00;0.24;126.85;;;;;14.90;1.00;;;;;;2284439;60;2012;-87
2022/09/29 05:46:35;591838.00;1.97;1020.13;72321.00;0.24;125.77;;;;;15.00;1.00;;;;;;2284419;60;1083;-87
2022/09/29 05:49:02;596156.00;1.99;1027.58;65923.00;0.22;114.71;;;;;15.40;1.00;;;;;;2284525;60;1064;-87
2022/09/29 05:51:29;520300.00;1.73;896.78;61207.00;0.20;106.56;;;;;15.60;1.00;;;;;;2284439;60;1316;-88
2022/09/29 05:53:56;675743.00;2.25;1165.20;70597.00;0.24;122.79;;;;;15.80;1.00;;;;;;2284451;60;1406;-87
2022/09/29 05:56:26;643757.00;2.15;1109.84;111450.00;0.37;193.33;;;;;16.10;1.00;;;;;;2284450;60;2443;-86
2022/09/29 05:58:54;697109.00;2.32;1202.23;123530.00;0.41;214.17;;;;;16.10;1.00;;;;;;2284492;60;2161;-87
2022/09/29 06:01:23;665440.00;2.22;1147.36;65339.00;0.22;113.71;;;;;15.80;1.00;;;;;;2284504;60;1110;-86
2022/09/29 06:03:51;525544.00;1.75;905.81;68289.00;0.23;118.80;;;;;15.70;1.00;;;;;;2284473;60;1988;-88
2022/09/29 06:06:20;612305.00;2.04;1055.47;59716.00;0.20;103.99;;;;;15.60;1.00;;;;;;2284491;60;1093;-87
2022/09/29 06:08:49;665011.00;2.22;1146.62;64705.00;0.22;112.61;;;;;15.80;1.00;;;;;;2284472;60;2111;-87
2022/09/29 06:11:18;640852.00;2.14;1104.81;69889.00;0.23;121.57;;;;;15.70;1.00;;;;;;2284387;60;1641;-87
2022/09/29 06:13:47;917497.00;3.06;1586.87;70566.00;0.24;122.74;;;;;15.80;1.00;;;;;;2284459;60;1392;-88
2022/09/29 06:16:17;920223.00;3.07;1591.67;118644.00;0.40;205.74;;;;;15.70;1.00;;;;;;2284411;60;1184;-85
2022/09/29 06:18:44;797825.00;2.66;1377.33;63425.00;0.21;110.40;;;;;15.70;1.00;;;;;;2284424;60;1367;-88
2022/09/29 06:21:14;628986.00;2.10;1084.30;67808.00;0.23;117.97;;;;;15.80;1.00;;;;;;2284436;60;1094;-87
2022/09/29 06:23:41;1002030.00;3.34;1736.07;64676.00;0.22;112.56;;;;;15.70;1.00;;;;;;2284278;60;1926;-89
2022/09/29 06:26:12;778690.00;2.60;1343.98;64459.00;0.21;112.18;;;;;15.90;1.00;;;;;;2284407;60;1058;-87
2022/09/29 06:28:39;756630.00;2.52;1305.59;78037.00;0.26;135.65;;;;;16.10;1.00;;;;;;2284448;60;1090;-85
2022/09/29 06:31:09;802517.00;2.68;1385.51;82838.00;0.28;143.94;;;;;16.30;1.00;;;;;;2284357;60;1508;-88
2022/09/29 06:33:37;1190584.00;3.97;2073.21;72397.00;0.24;125.90;;;;;16.40;1.00;;;;;;2284388;60;1587;-88
2022/09/29 06:38:54;817714.00;2.73;1412.03;4680.00;0.02;8.73;;;;;16.40;1.00;;;;;;2284500;60;682;-88
2022/09/29 06:41:21;1256840.00;4.19;2193.33;72983.00;0.24;126.91;;;;;16.30;1.00;;;;;;2284553;60;988;-87
2022/09/29 06:43:48;1096352.00;3.65;1903.90;152523.00;0.51;264.16;;;;;16.30;1.00;;;;;;2284972;60;1914;-87
2022/09/29 06:46:15;954763.00;3.18;1652.51;57885.00;0.19;100.82;;;;;16.40;1.00;;;;;;2285160;60;1138;-88
2022/09/29 06:48:43;841167.00;2.80;1453.02;59997.00;0.20;104.47;;;;;16.50;1.00;;;;;;2285127;60;1090;-87
2022/09/29 06:51:10;901283.00;3.00;1558.37;61089.00;0.20;106.36;;;;;16.50;1.00;;;;;;2285026;60;1131;-91
2022/09/29 06:53:37;751028.00;2.50;1295.84;71203.00;0.24;123.84;;;;;16.40;1.00;;;;;;2285019;60;1408;-87
2022/09/29 06:56:04;790007.00;2.63;1363.70;64858.00;0.22;112.87;;;;;16.40;1.00;;;;;;2285135;60;1115;-88
2022/09/29 06:58:30;676888.00;2.26;1167.18;73116.00;0.24;127.14;;;;;16.40;1.00;;;;;;2285093;60;1117;-86
2022/09/29 07:01:00;607292.00;2.02;1046.81;62877.00;0.21;109.45;;;;;16.20;1.00;;;;;;2285067;60;1058;-87
2022/09/29 07:03:27;984298.00;3.28;1704.68;62446.00;0.21;108.71;;;;;16.30;1.00;;;;;;2284969;60;1915;-87
2022/09/29 07:05:56;895594.00;2.99;1548.38;69346.00;0.23;120.63;;;;;16.30;1.00;;;;;;2284988;60;1032;-87
2022/09/29 07:08:23;956146.00;3.19;1654.95;82218.00;0.27;142.87;;;;;16.40;1.00;;;;;;2285094;60;978;-90
2022/09/29 07:10:49;914335.00;3.05;1581.31;65323.00;0.22;113.68;;;;;16.50;1.00;;;;;;2285100;60;1101;-86
2022/09/29 07:13:17;535702.00;1.79;923.32;54433.00;0.18;94.85;;;;;16.70;1.00;;;;;;2285010;60;1303;-88
2022/09/29 07:15:44;766014.00;2.55;1321.91;69574.00;0.23;121.02;;;;;16.60;1.00;;;;;;2285012;60;1589;-88
2022/09/29 07:18:10;856694.00;2.86;1480.18;96884.00;0.32;168.19;;;;;16.80;1.00;;;;;;2284963;60;1188;-87
2022/09/29 07:20:38;791208.00;2.64;1365.79;70669.00;0.24;122.92;;;;;16.70;1.00;;;;;;2285074;60;1054;-87
2022/09/29 07:23:07;836729.00;2.79;1445.26;68795.00;0.23;119.68;;;;;16.60;1.00;;;;;;2284943;60;1913;-88
2022/09/29 07:25:34;626545.00;2.09;1080.08;63240.00;0.21;110.08;;;;;16.40;1.00;;;;;;2284991;60;1264;-88
2022/09/29 07:28:02;803938.00;2.68;1387.99;85068.00;0.28;147.79;;;;;16.40;1.00;;;;;;2284986;60;1642;-87
2022/09/29 07:30:30;922985.00;3.08;1596.53;73062.00;0.24;127.05;;;;;16.60;1.00;;;;;;2285025;60;1106;-87
2022/09/29 07:32:57;923325.00;3.08;1597.12;151446.00;0.50;262.30;;;;;16.40;1.00;;;;;;2285025;60;1368;-88
2022/09/29 07:35:24;851852.00;2.84;1471.71;117671.00;0.39;204.06;;;;;16.30;1.00;;;;;;2284997;60;997;-87
2022/09/29 07:37:52;608825.00;2.03;1049.46;68832.00;0.23;119.74;;;;;16.50;1.00;;;;;;2284981;60;1085;-88
2022/09/29 07:40:21;607952.00;2.03;1047.95;74149.00;0.25;128.93;;;;;16.50;1.00;;;;;;2284935;60;1038;-86
2022/09/29 07:42:48;878757.00;2.93;1518.84;64803.00;0.22;112.78;;;;;16.60;1.00;;;;;;2284766;60;2013;-89
2022/09/29 07:45:16;803664.00;2.68;1387.51;176725.00;0.59;305.85;;;;;16.90;1.00;;;;;;2284922;60;1062;-88
2022/09/29 07:47:43;718825.00;2.40;1239.90;103483.00;0.34;179.58;;;;;16.70;1.00;;;;;;2284774;60;995;-87
2022/09/29 07:50:10;638371.00;2.13;1100.52;66249.00;0.22;115.28;;;;;16.70;1.00;;;;;;2284872;60;1118;-87
2022/09/29 07:52:37;820184.00;2.73;1416.35;42049.00;0.14;73.43;;;;;16.90;1.00;;;;;;2284631;60;1259;-86
2022/09/29 07:55:05;728268.00;2.43;1256.29;71790.00;0.24;124.85;;;;;17.20;1.00;;;;;;2284714;60;1027;-87
2022/09/29 07:57:34;788574.00;2.63;1361.20;72790.00;0.24;126.58;;;;;17.10;1.00;;;;;;2284827;60;1596;-87
2022/09/29 08:00:01;917405.00;3.06;1586.71;67377.00;0.22;117.23;;;;;16.10;1.00;;;;;;2284845;60;1039;-89
2022/09/29 08:02:28;940047.00;3.13;1626.57;66577.00;0.22;115.85;;;;;16.00;1.00;;;;;;2284846;60;1583;-87
2022/09/29 08:04:57;804655.00;2.68;1389.24;88773.00;0.30;154.19;;;;;16.20;1.00;;;;;;2284848;60;1930;-89
2022/09/29 08:07:24;1083822.00;3.61;1881.52;181206.00;0.60;313.57;;;;;16.20;1.00;;;;;;2284808;60;991;-87
2022/09/29 08:09:51;633130.00;2.11;1091.46;55833.00;0.19;97.27;;;;;16.10;1.00;;;;;;2284897;60;992;-87
2022/09/29 08:12:18;583026.00;1.94;1004.92;62929.00;0.21;109.54;;;;;16.40;1.00;;;;;;2284714;60;1678;-88
2022/09/29 08:14:48;1044138.00;3.48;1810.80;141899.00;0.47;245.84;;;;;16.90;1.00;;;;;;2284870;60;1047;-86
2022/09/29 08:17:15;808675.00;2.70;1396.26;67357.00;0.22;117.19;;;;;17.30;1.00;;;;;;2284797;60;1157;-86
2022/09/29 08:19:42;658672.00;2.20;1135.64;70782.00;0.24;123.11;;;;;17.60;1.00;;;;;;2284774;60;1078;-87
2022/09/29 08:22:09;719500.00;2.40;1241.07;71410.00;0.24;124.20;;;;;17.40;1.00;;;;;;2284796;60;1270;-86
2022/09/29 08:24:39;881837.00;2.94;1524.24;72587.00;0.24;126.23;;;;;17.30;1.00;;;;;;2284769;60;1984;-88
2022/09/29 08:27:06;782714.00;2.61;1350.99;68048.00;0.23;118.39;;;;;17.40;1.00;;;;;;2284859;60;1228;-87
2022/09/29 08:29:33;664459.00;2.21;1145.66;55811.00;0.19;97.23;;;;;17.20;1.00;;;;;;2284813;60;1051;-88
2022/09/29 08:32:01;852944.00;2.84;1473.62;72160.00;0.24;125.49;;;;;17.20;1.00;;;;;;2284832;60;1136;-87
2022/09/29 08:37:51;1069786.00;3.57;1856.47;7108.00;0.02;12.94;;;;;16.70;1.00;;;;;;2422049;55;3735;-87
2022/09/29 08:40:18;1089527.00;3.63;1891.70;0.00;0.00;0.62;;;;;16.70;1.00;;;;;;2283229;60;1078;-87
2022/09/29 08:43:06;1145890.00;3.82;1992.69;13174.00;0.04;23.45;;;;;16.70;1.00;;;;;;2284668;60;1572;-87
2022/09/29 08:45:38;671126.00;2.24;1157.20;26856.00;0.09;47.14;;;;;16.60;1.00;;;;;;2284663;60;1753;-87
2022/09/29 08:48:13;574954.00;1.92;990.99;10076.00;0.03;18.08;;;;;16.80;1.00;;;;;;2284710;60;1102;-87
2022/09/29 08:50:46;663079.00;2.21;1143.27;18249.00;0.06;32.24;;;;;17.20;1.00;;;;;;2284693;60;1062;-87
2022/09/29 08:53:17;348048.00;1.16;600.51;0.00;0.00;0.62;;;;;17.40;1.00;;;;;;2284757;60;1441;-86
2022/09/29 08:55:51;408634.00;1.36;704.65;0.00;0.00;0.62;;;;;17.20;1.00;;;;;;2284639;60;1603;-87
2022/09/29 08:58:19;768931.00;2.56;1326.99;133238.00;0.44;230.91;;;;;17.50;1.00;;;;;;2284688;60;1642;-87
2022/09/29 09:00:58;549002.00;1.83;946.24;0.00;0.00;0.62;;;;;18.00;1.00;;;;;;2284645;60;1139;-87
2022/09/29 09:03:49;506741.00;1.69;873.43;0.00;0.00;0.62;;;;;18.40;1.00;;;;;;2284601;60;1919;-86
2022/09/29 09:06:27;613863.00;2.05;1058.16;0.00;0.00;0.62;;;;;18.50;1.00;;;;;;2284440;60;1754;-87
2022/09/29 09:09:25;540398.00;1.80;931.41;0.00;0.00;0.62;;;;;18.20;1.00;;;;;;2284632;60;1024;-88
2022/09/29 09:12:32;393625.00;1.31;678.85;0.00;0.00;0.62;;;;;17.80;1.00;;;;;;2284493;60;1126;-86
2022/09/29 09:15:21;543368.00;1.81;936.53;0.00;0.00;0.62;;;;;17.80;1.00;;;;;;2284643;60;1183;-85
2022/09/29 09:18:21;460179.00;1.53;793.29;0.00;0.00;0.62;;;;;18.30;1.00;;;;;;2284663;60;998;-87
2022/09/29 09:20:56;404953.00;1.35;698.32;0.00;0.00;0.62;;;;;18.80;1.00;;;;;;2284655;60;1073;-86
2022/09/29 09:23:29;404901.00;1.35;698.23;0.00;0.00;0.62;;;;;19.10;1.00;;;;;;2284582;60;1997;-87
2022/09/29 09:26:01;718182.00;2.39;1238.78;18048.00;0.06;31.89;;;;;19.20;1.00;;;;;;2280984;60;1244;-87
2022/09/29 09:28:33;409435.00;1.36;706.03;0.00;0.00;0.62;;;;;18.80;1.00;;;;;;2284657;60;803;-86
2022/09/29 09:31:06;648966.00;2.16;1118.85;0.00;0.00;0.62;;;;;18.70;1.00;;;;;;2284534;60;1586;-85
2022/09/29 09:33:42;525409.00;1.75;905.58;0.00;0.00;0.62;;;;;18.90;1.00;;;;;;2284541;60;1367;-88
2022/09/29 09:36:19;606865.00;2.02;1046.08;0.00;0.00;0.62;;;;;18.80;1.00;;;;;;2284610;60;1050;-87
2022/09/29 09:38:55;289893.00;0.97;500.55;0.00;0.00;0.62;;;;;18.70;1.00;;;;;;2284459;60;1443;-87
2022/09/29 09:41:24;603852.00;2.01;1040.87;0.00;0.00;0.62;;;;;18.90;1.00;;;;;;2284391;60;1055;-86
2022/09/29 09:43:57;454465.00;1.51;783.46;0.00;0.00;0.62;;;;;19.00;1.00;;;;;;2284470;60;2001;-87
2022/09/29 09:46:31;566200.00;1.89;975.89;0.00;0.00;0.62;;;;;18.80;1.00;;;;;;2296911;55;3729;-86
2022/09/29 09:49:11;507689.00;1.69;875.06;0.00;0.00;0.62;;;;;18.60;1.00;;;;;;2288639;60;1387;-88
2022/09/29 09:51:51;549480.00;1.83;947.06;0.00;0.00;0.62;;;;;18.70;1.00;;;;;;2288576;60;1045;-87
2022/09/29 09:54:28;385472.00;1.28;664.83;0.00;0.00;0.62;;;;;18.80;1.00;;;;;;2288473;60;1424;-87